sensor_id;sensor_type;location;lat;lon;timestamp;P1;durP1;ratioP1;P2;durP2;ratioP2
17650;SDS011;26663;59.302;18.082;2024-03-06T00:04:12;2.77;;;2.57;;
17650;SDS011;26663;59.302;18.082;2024-03-06T00:07:19;4.15;;;2.95;;
17650;SDS011;26663;59.302;18.082;2024-03-06T00:10:23;3.43;;;2.77;;
17650;SDS011;26663;59.302;18.082;2024-03-06T00:13:27;4.37;;;2.93;;
17650;SDS011;26663;59.302;18.082;2024-03-06T00:19:36;6.10;;;2.80;;
17650;SDS011;26663;59.302;18.082;2024-03-06T00:22:40;4.37;;;2.70;;
17650;SDS011;26663;59.302;18.082;2024-03-06T00:25:44;2.90;;;2.70;;
17650;SDS011;26663;59.302;18.082;2024-03-06T00:28:48;3.03;;;2.83;;
17650;SDS011;26663;59.302;18.082;2024-03-06T00:31:54;3.20;;;2.83;;
17650;SDS011;26663;59.302;18.082;2024-03-06T00:34:58;3.40;;;3.10;;
17650;SDS011;26663;59.302;18.082;2024-03-06T00:38:02;3.00;;;2.87;;
17650;SDS011;26663;59.302;18.082;2024-03-06T00:41:06;2.90;;;2.70;;
17650;SDS011;26663;59.302;18.082;2024-03-06T00:44:10;4.13;;;2.70;;
17650;SDS011;26663;59.302;18.082;2024-03-06T00:47:15;5.53;;;2.80;;
17650;SDS011;26663;59.302;18.082;2024-03-06T00:50:20;3.30;;;3.00;;
17650;SDS011;26663;59.302;18.082;2024-03-06T00:56:28;3.17;;;2.80;;
17650;SDS011;26663;59.302;18.082;2024-03-06T00:59:33;2.97;;;2.73;;
17650;SDS011;26663;59.302;18.082;2024-03-06T01:17:58;6.43;;;2.30;;
17650;SDS011;26663;59.302;18.082;2024-03-06T01:24:06;3.57;;;2.70;;
17650;SDS011;26663;59.302;18.082;2024-03-06T01:27:10;2.33;;;2.23;;
17650;SDS011;26663;59.302;18.082;2024-03-06T01:33:19;3.77;;;2.40;;
17650;SDS011;26663;59.302;18.082;2024-03-06T01:36:24;3.33;;;2.60;;
17650;SDS011;26663;59.302;18.082;2024-03-06T01:39:28;3.17;;;2.47;;
17650;SDS011;26663;59.302;18.082;2024-03-06T01:42:32;2.13;;;2.07;;
17650;SDS011;26663;59.302;18.082;2024-03-06T01:45:36;8.90;;;2.50;;
17650;SDS011;26663;59.302;18.082;2024-03-06T01:48:44;2.53;;;2.33;;
17650;SDS011;26663;59.302;18.082;2024-03-06T01:51:48;3.53;;;2.50;;
17650;SDS011;26663;59.302;18.082;2024-03-06T01:54:54;2.60;;;2.30;;
17650;SDS011;26663;59.302;18.082;2024-03-06T01:57:59;3.50;;;2.37;;
17650;SDS011;26663;59.302;18.082;2024-03-06T02:01:03;4.07;;;2.63;;
17650;SDS011;26663;59.302;18.082;2024-03-06T02:04:08;2.33;;;2.23;;
17650;SDS011;26663;59.302;18.082;2024-03-06T02:07:15;3.43;;;2.47;;
17650;SDS011;26663;59.302;18.082;2024-03-06T02:10:19;4.33;;;2.63;;
17650;SDS011;26663;59.302;18.082;2024-03-06T02:13:23;3.93;;;2.53;;
17650;SDS011;26663;59.302;18.082;2024-03-06T02:16:27;2.23;;;2.13;;
17650;SDS011;26663;59.302;18.082;2024-03-06T02:19:39;3.53;;;2.30;;
17650;SDS011;26663;59.302;18.082;2024-03-06T02:22:44;2.57;;;2.37;;
17650;SDS011;26663;59.302;18.082;2024-03-06T02:25:48;2.43;;;2.30;;
17650;SDS011;26663;59.302;18.082;2024-03-06T02:28:54;2.80;;;2.20;;
17650;SDS011;26663;59.302;18.082;2024-03-06T02:31:58;3.70;;;2.03;;
17650;SDS011;26663;59.302;18.082;2024-03-06T02:35:05;4.27;;;2.63;;
17650;SDS011;26663;59.302;18.082;2024-03-06T02:38:12;2.40;;;2.20;;
17650;SDS011;26663;59.302;18.082;2024-03-06T02:41:16;3.40;;;2.53;;
17650;SDS011;26663;59.302;18.082;2024-03-06T02:44:20;2.63;;;2.23;;
17650;SDS011;26663;59.302;18.082;2024-03-06T02:47:24;5.93;;;2.43;;
17650;SDS011;26663;59.302;18.082;2024-03-06T02:50:28;6.90;;;2.80;;
17650;SDS011;26663;59.302;18.082;2024-03-06T02:53:33;3.07;;;2.33;;
17650;SDS011;26663;59.302;18.082;2024-03-06T02:56:37;2.60;;;2.40;;
17650;SDS011;26663;59.302;18.082;2024-03-06T02:59:42;3.30;;;2.70;;
17650;SDS011;26663;59.302;18.082;2024-03-06T03:02:46;2.80;;;2.70;;
17650;SDS011;26663;59.302;18.082;2024-03-06T03:05:51;2.67;;;2.57;;
17650;SDS011;26663;59.302;18.082;2024-03-06T03:08:56;4.13;;;2.83;;
17650;SDS011;26663;59.302;18.082;2024-03-06T03:12:00;4.87;;;3.00;;
17650;SDS011;26663;59.302;18.082;2024-03-06T03:15:04;2.90;;;2.80;;
17650;SDS011;26663;59.302;18.082;2024-03-06T03:18:08;4.37;;;2.70;;
17650;SDS011;26663;59.302;18.082;2024-03-06T03:21:12;7.20;;;2.90;;
17650;SDS011;26663;59.302;18.082;2024-03-06T03:24:18;5.20;;;3.25;;
17650;SDS011;26663;59.302;18.082;2024-03-06T03:27:22;3.13;;;2.93;;
17650;SDS011;26663;59.302;18.082;2024-03-06T03:30:26;3.00;;;2.80;;
17650;SDS011;26663;59.302;18.082;2024-03-06T03:33:30;5.67;;;2.97;;
17650;SDS011;26663;59.302;18.082;2024-03-06T03:36:39;3.83;;;3.00;;
17650;SDS011;26663;59.302;18.082;2024-03-06T03:39:44;2.93;;;2.73;;
17650;SDS011;26663;59.302;18.082;2024-03-06T03:42:48;3.47;;;3.10;;
17650;SDS011;26663;59.302;18.082;2024-03-06T03:45:52;3.17;;;2.87;;
17650;SDS011;26663;59.302;18.082;2024-03-06T03:48:56;4.63;;;3.13;;
17650;SDS011;26663;59.302;18.082;2024-03-06T03:52:00;3.60;;;2.80;;
17650;SDS011;26663;59.302;18.082;2024-03-06T03:55:07;3.27;;;2.60;;
17650;SDS011;26663;59.302;18.082;2024-03-06T03:58:11;3.53;;;3.23;;
17650;SDS011;26663;59.302;18.082;2024-03-06T04:01:18;3.43;;;3.00;;
17650;SDS011;26663;59.302;18.082;2024-03-06T04:04:21;3.00;;;2.90;;
17650;SDS011;26663;59.302;18.082;2024-03-06T04:07:26;3.23;;;2.90;;
17650;SDS011;26663;59.302;18.082;2024-03-06T04:10:31;4.63;;;3.17;;
17650;SDS011;26663;59.302;18.082;2024-03-06T04:13:36;3.03;;;2.80;;
17650;SDS011;26663;59.302;18.082;2024-03-06T04:16:40;2.90;;;2.70;;
17650;SDS011;26663;59.302;18.082;2024-03-06T04:19:45;3.10;;;2.90;;
17650;SDS011;26663;59.302;18.082;2024-03-06T04:22:50;3.60;;;2.77;;
17650;SDS011;26663;59.302;18.082;2024-03-06T04:25:56;4.77;;;3.10;;
17650;SDS011;26663;59.302;18.082;2024-03-06T04:29:00;6.00;;;3.10;;
17650;SDS011;26663;59.302;18.082;2024-03-06T04:32:05;3.67;;;2.73;;
17650;SDS011;26663;59.302;18.082;2024-03-06T04:35:09;5.80;;;3.13;;
17650;SDS011;26663;59.302;18.082;2024-03-06T04:38:14;3.77;;;3.10;;
17650;SDS011;26663;59.302;18.082;2024-03-06T04:41:20;4.63;;;3.27;;
17650;SDS011;26663;59.302;18.082;2024-03-06T04:44:24;7.27;;;2.97;;
17650;SDS011;26663;59.302;18.082;2024-03-06T04:47:28;3.17;;;2.93;;
17650;SDS011;26663;59.302;18.082;2024-03-06T04:50:32;3.20;;;3.00;;
17650;SDS011;26663;59.302;18.082;2024-03-06T04:53:36;3.37;;;3.20;;
17650;SDS011;26663;59.302;18.082;2024-03-06T04:56:41;3.17;;;2.97;;
17650;SDS011;26663;59.302;18.082;2024-03-06T04:59:45;4.40;;;2.93;;
17650;SDS011;26663;59.302;18.082;2024-03-06T05:02:49;3.20;;;2.77;;
17650;SDS011;26663;59.302;18.082;2024-03-06T05:06:10;3.43;;;2.80;;
17650;SDS011;26663;59.302;18.082;2024-03-06T05:09:31;3.20;;;3.00;;
17650;SDS011;26663;59.302;18.082;2024-03-06T05:12:55;3.27;;;3.07;;
17650;SDS011;26663;59.302;18.082;2024-03-06T05:16:16;3.77;;;2.87;;
17650;SDS011;26663;59.302;18.082;2024-03-06T05:19:38;4.90;;;2.93;;
17650;SDS011;26663;59.302;18.082;2024-03-06T05:22:59;4.50;;;3.20;;
17650;SDS011;26663;59.302;18.082;2024-03-06T05:26:21;3.73;;;3.03;;
17650;SDS011;26663;59.302;18.082;2024-03-06T05:29:43;3.20;;;2.97;;
17650;SDS011;26663;59.302;18.082;2024-03-06T05:33:05;9.10;;;3.53;;
17650;SDS011;26663;59.302;18.082;2024-03-06T05:36:27;2.77;;;2.50;;
17650;SDS011;26663;59.302;18.082;2024-03-06T05:39:50;4.53;;;2.90;;
17650;SDS011;26663;59.302;18.082;2024-03-06T05:43:12;3.80;;;3.47;;
17650;SDS011;26663;59.302;18.082;2024-03-06T05:46:35;2.80;;;2.70;;
17650;SDS011;26663;59.302;18.082;2024-03-06T05:49:56;3.23;;;2.93;;
17650;SDS011;26663;59.302;18.082;2024-03-06T05:53:18;2.93;;;2.80;;
17650;SDS011;26663;59.302;18.082;2024-03-06T05:56:39;3.03;;;2.73;;
17650;SDS011;26663;59.302;18.082;2024-03-06T06:00:01;2.67;;;2.53;;
17650;SDS011;26663;59.302;18.082;2024-03-06T06:03:13;2.63;;;2.53;;
17650;SDS011;26663;59.302;18.082;2024-03-06T06:06:17;4.47;;;2.80;;
17650;SDS011;26663;59.302;18.082;2024-03-06T06:09:22;7.13;;;2.90;;
17650;SDS011;26663;59.302;18.082;2024-03-06T06:12:26;2.67;;;2.47;;
17650;SDS011;26663;59.302;18.082;2024-03-06T06:15:30;3.93;;;2.70;;
17650;SDS011;26663;59.302;18.082;2024-03-06T06:18:35;4.07;;;3.10;;
17650;SDS011;26663;59.302;18.082;2024-03-06T06:21:39;2.53;;;2.40;;
17650;SDS011;26663;59.302;18.082;2024-03-06T06:24:43;4.00;;;2.90;;
17650;SDS011;26663;59.302;18.082;2024-03-06T06:27:49;2.77;;;2.60;;
17650;SDS011;26663;59.302;18.082;2024-03-06T06:30:52;2.93;;;2.73;;
17650;SDS011;26663;59.302;18.082;2024-03-06T06:33:58;3.27;;;2.87;;
17650;SDS011;26663;59.302;18.082;2024-03-06T06:37:02;2.90;;;2.80;;
17650;SDS011;26663;59.302;18.082;2024-03-06T06:40:06;2.80;;;2.60;;
17650;SDS011;26663;59.302;18.082;2024-03-06T06:43:13;2.73;;;2.33;;
17650;SDS011;26663;59.302;18.082;2024-03-06T06:46:17;3.63;;;2.47;;
17650;SDS011;26663;59.302;18.082;2024-03-06T06:49:25;2.63;;;2.43;;
17650;SDS011;26663;59.302;18.082;2024-03-06T06:52:29;3.93;;;2.50;;
17650;SDS011;26663;59.302;18.082;2024-03-06T06:55:35;4.50;;;2.20;;
17650;SDS011;26663;59.302;18.082;2024-03-06T06:58:40;4.53;;;2.40;;
17650;SDS011;26663;59.302;18.082;2024-03-06T07:01:45;2.63;;;2.43;;
17650;SDS011;26663;59.302;18.082;2024-03-06T07:04:52;2.97;;;2.30;;
17650;SDS011;26663;59.302;18.082;2024-03-06T07:07:56;2.80;;;2.60;;
17650;SDS011;26663;59.302;18.082;2024-03-06T07:10:59;2.77;;;2.43;;
17650;SDS011;26663;59.302;18.082;2024-03-06T07:14:04;3.07;;;2.30;;
17650;SDS011;26663;59.302;18.082;2024-03-06T07:17:08;5.30;;;2.80;;
17650;SDS011;26663;59.302;18.082;2024-03-06T07:20:14;2.60;;;2.40;;
17650;SDS011;26663;59.302;18.082;2024-03-06T07:23:17;2.87;;;2.57;;
17650;SDS011;26663;59.302;18.082;2024-03-06T07:26:22;5.77;;;2.70;;
17650;SDS011;26663;59.302;18.082;2024-03-06T07:29:26;3.83;;;2.47;;
17650;SDS011;26663;59.302;18.082;2024-03-06T07:32:30;2.77;;;2.67;;
17650;SDS011;26663;59.302;18.082;2024-03-06T07:35:35;2.90;;;2.67;;
17650;SDS011;26663;59.302;18.082;2024-03-06T07:38:39;8.57;;;2.80;;
17650;SDS011;26663;59.302;18.082;2024-03-06T07:41:43;2.70;;;2.50;;
17650;SDS011;26663;59.302;18.082;2024-03-06T07:44:48;5.33;;;2.63;;
17650;SDS011;26663;59.302;18.082;2024-03-06T07:47:52;3.00;;;2.73;;
17650;SDS011;26663;59.302;18.082;2024-03-06T07:50:58;2.23;;;2.13;;
17650;SDS011;26663;59.302;18.082;2024-03-06T07:54:02;3.53;;;2.73;;
17650;SDS011;26663;59.302;18.082;2024-03-06T07:57:07;7.53;;;2.50;;
17650;SDS011;26663;59.302;18.082;2024-03-06T08:00:12;2.60;;;2.50;;
17650;SDS011;26663;59.302;18.082;2024-03-06T08:03:17;9.07;;;2.40;;
17650;SDS011;26663;59.302;18.082;2024-03-06T08:06:22;3.73;;;2.57;;
17650;SDS011;26663;59.302;18.082;2024-03-06T08:09:27;4.67;;;2.23;;
17650;SDS011;26663;59.302;18.082;2024-03-06T08:12:31;7.67;;;2.80;;
17650;SDS011;26663;59.302;18.082;2024-03-06T08:15:35;4.10;;;2.40;;
17650;SDS011;26663;59.302;18.082;2024-03-06T08:18:39;2.57;;;2.30;;
17650;SDS011;26663;59.302;18.082;2024-03-06T08:21:44;2.97;;;2.20;;
17650;SDS011;26663;59.302;18.082;2024-03-06T08:24:48;8.80;;;2.57;;
17650;SDS011;26663;59.302;18.082;2024-03-06T08:27:52;5.40;;;2.57;;
17650;SDS011;26663;59.302;18.082;2024-03-06T08:30:56;3.47;;;2.20;;
17650;SDS011;26663;59.302;18.082;2024-03-06T08:33:59;5.80;;;2.23;;
17650;SDS011;26663;59.302;18.082;2024-03-06T08:37:05;5.13;;;2.27;;
17650;SDS011;26663;59.302;18.082;2024-03-06T08:40:09;2.77;;;1.90;;
17650;SDS011;26663;59.302;18.082;2024-03-06T08:43:17;2.07;;;1.87;;
17650;SDS011;26663;59.302;18.082;2024-03-06T08:46:22;1.80;;;1.80;;
17650;SDS011;26663;59.302;18.082;2024-03-06T08:49:26;4.27;;;2.23;;
17650;SDS011;26663;59.302;18.082;2024-03-06T08:52:31;3.70;;;2.60;;
17650;SDS011;26663;59.302;18.082;2024-03-06T08:55:35;4.93;;;1.80;;
17650;SDS011;26663;59.302;18.082;2024-03-06T08:58:39;1.60;;;1.60;;
17650;SDS011;26663;59.302;18.082;2024-03-06T09:01:43;3.93;;;2.00;;
17650;SDS011;26663;59.302;18.082;2024-03-06T09:04:49;2.10;;;2.00;;
17650;SDS011;26663;59.302;18.082;2024-03-06T09:07:55;2.20;;;1.70;;
17650;SDS011;26663;59.302;18.082;2024-03-06T09:11:03;2.83;;;1.90;;
17650;SDS011;26663;59.302;18.082;2024-03-06T09:14:07;1.87;;;1.67;;
17650;SDS011;26663;59.302;18.082;2024-03-06T09:17:11;4.13;;;2.10;;
17650;SDS011;26663;59.302;18.082;2024-03-06T09:20:17;2.53;;;2.07;;
17650;SDS011;26663;59.302;18.082;2024-03-06T09:23:22;4.23;;;1.90;;
17650;SDS011;26663;59.302;18.082;2024-03-06T09:26:28;3.80;;;1.83;;
17650;SDS011;26663;59.302;18.082;2024-03-06T09:29:32;4.17;;;1.70;;
17650;SDS011;26663;59.302;18.082;2024-03-06T09:32:37;3.07;;;1.77;;
17650;SDS011;26663;59.302;18.082;2024-03-06T09:35:42;2.20;;;2.20;;
17650;SDS011;26663;59.302;18.082;2024-03-06T09:38:49;5.13;;;2.17;;
17650;SDS011;26663;59.302;18.082;2024-03-06T09:41:53;2.17;;;1.70;;
17650;SDS011;26663;59.302;18.082;2024-03-06T09:44:59;4.53;;;1.87;;
17650;SDS011;26663;59.302;18.082;2024-03-06T09:48:04;2.70;;;1.70;;
17650;SDS011;26663;59.302;18.082;2024-03-06T09:51:09;1.87;;;1.77;;
17650;SDS011;26663;59.302;18.082;2024-03-06T09:54:17;1.70;;;1.67;;
17650;SDS011;26663;59.302;18.082;2024-03-06T09:57:21;3.90;;;2.03;;
17650;SDS011;26663;59.302;18.082;2024-03-06T10:00:27;2.40;;;1.80;;
17650;SDS011;26663;59.302;18.082;2024-03-06T10:03:33;1.80;;;1.70;;
17650;SDS011;26663;59.302;18.082;2024-03-06T10:06:37;2.20;;;1.87;;
17650;SDS011;26663;59.302;18.082;2024-03-06T10:09:42;4.50;;;2.00;;
17650;SDS011;26663;59.302;18.082;2024-03-06T10:12:47;3.00;;;2.10;;
17650;SDS011;26663;59.302;18.082;2024-03-06T10:15:57;2.70;;;1.80;;
17650;SDS011;26663;59.302;18.082;2024-03-06T10:19:13;2.33;;;1.70;;
17650;SDS011;26663;59.302;18.082;2024-03-06T10:22:20;1.90;;;1.80;;
17650;SDS011;26663;59.302;18.082;2024-03-06T10:25:28;1.80;;;1.70;;
17650;SDS011;26663;59.302;18.082;2024-03-06T10:28:32;2.00;;;1.83;;
17650;SDS011;26663;59.302;18.082;2024-03-06T10:31:36;3.50;;;2.00;;
17650;SDS011;26663;59.302;18.082;2024-03-06T10:34:40;3.90;;;1.70;;
17650;SDS011;26663;59.302;18.082;2024-03-06T10:37:44;1.80;;;1.70;;
17650;SDS011;26663;59.302;18.082;2024-03-06T10:40:50;2.87;;;1.60;;
17650;SDS011;26663;59.302;18.082;2024-03-06T10:43:54;1.87;;;1.87;;
17650;SDS011;26663;59.302;18.082;2024-03-06T10:47:00;3.87;;;2.13;;
17650;SDS011;26663;59.302;18.082;2024-03-06T10:50:05;2.37;;;2.27;;
17650;SDS011;26663;59.302;18.082;2024-03-06T10:53:13;2.33;;;1.83;;
17650;SDS011;26663;59.302;18.082;2024-03-06T10:56:25;2.83;;;2.10;;
17650;SDS011;26663;59.302;18.082;2024-03-06T10:59:29;4.70;;;1.90;;
17650;SDS011;26663;59.302;18.082;2024-03-06T11:02:33;2.50;;;2.30;;
17650;SDS011;26663;59.302;18.082;2024-03-06T11:05:39;1.90;;;1.80;;
17650;SDS011;26663;59.302;18.082;2024-03-06T11:08:44;1.80;;;1.70;;
17650;SDS011;26663;59.302;18.082;2024-03-06T11:11:52;3.30;;;2.20;;
17650;SDS011;26663;59.302;18.082;2024-03-06T11:15:08;2.30;;;2.10;;
17650;SDS011;26663;59.302;18.082;2024-03-06T11:21:45;3.57;;;1.87;;
17650;SDS011;26663;59.302;18.082;2024-03-06T11:24:51;2.03;;;1.90;;
17650;SDS011;26663;59.302;18.082;2024-03-06T11:28:05;3.97;;;1.90;;
17650;SDS011;26663;59.302;18.082;2024-03-06T11:31:10;10.00;;;2.07;;
17650;SDS011;26663;59.302;18.082;2024-03-06T11:34:16;2.20;;;1.93;;
17650;SDS011;26663;59.302;18.082;2024-03-06T11:37:20;2.23;;;2.10;;
17650;SDS011;26663;59.302;18.082;2024-03-06T11:40:25;2.10;;;2.00;;
17650;SDS011;26663;59.302;18.082;2024-03-06T11:43:31;2.90;;;2.30;;
17650;SDS011;26663;59.302;18.082;2024-03-06T11:46:41;7.60;;;2.30;;
17650;SDS011;26663;59.302;18.082;2024-03-06T11:49:45;3.23;;;2.43;;
17650;SDS011;26663;59.302;18.082;2024-03-06T11:52:49;7.03;;;2.23;;
17650;SDS011;26663;59.302;18.082;2024-03-06T11:55:53;2.63;;;2.10;;
17650;SDS011;26663;59.302;18.082;2024-03-06T11:59:00;4.30;;;2.10;;
17650;SDS011;26663;59.302;18.082;2024-03-06T12:02:05;3.60;;;2.23;;
17650;SDS011;26663;59.302;18.082;2024-03-06T12:05:10;3.40;;;2.30;;
17650;SDS011;26663;59.302;18.082;2024-03-06T12:08:14;3.73;;;2.03;;
17650;SDS011;26663;59.302;18.082;2024-03-06T12:11:18;5.13;;;2.07;;
17650;SDS011;26663;59.302;18.082;2024-03-06T12:14:24;4.67;;;2.17;;
17650;SDS011;26663;59.302;18.082;2024-03-06T12:17:28;5.17;;;2.10;;
17650;SDS011;26663;59.302;18.082;2024-03-06T12:20:33;2.73;;;1.97;;
17650;SDS011;26663;59.302;18.082;2024-03-06T12:23:38;2.13;;;1.93;;
17650;SDS011;26663;59.302;18.082;2024-03-06T12:26:42;2.67;;;1.83;;
17650;SDS011;26663;59.302;18.082;2024-03-06T12:29:47;1.90;;;1.80;;
17650;SDS011;26663;59.302;18.082;2024-03-06T12:32:57;2.70;;;2.10;;
17650;SDS011;26663;59.302;18.082;2024-03-06T12:36:05;9.63;;;2.40;;
17650;SDS011;26663;59.302;18.082;2024-03-06T12:39:14;2.47;;;2.00;;
17650;SDS011;26663;59.302;18.082;2024-03-06T12:42:23;2.40;;;2.30;;
17650;SDS011;26663;59.302;18.082;2024-03-06T12:45:29;3.83;;;2.27;;
17650;SDS011;26663;59.302;18.082;2024-03-06T12:48:33;2.57;;;1.70;;
17650;SDS011;26663;59.302;18.082;2024-03-06T12:51:36;3.97;;;2.70;;
17650;SDS011;26663;59.302;18.082;2024-03-06T12:54:42;2.50;;;2.40;;
17650;SDS011;26663;59.302;18.082;2024-03-06T12:57:47;4.97;;;2.57;;
17650;SDS011;26663;59.302;18.082;2024-03-06T13:00:53;2.20;;;2.00;;
17650;SDS011;26663;59.302;18.082;2024-03-06T13:03:57;2.17;;;1.97;;
17650;SDS011;26663;59.302;18.082;2024-03-06T13:07:08;4.77;;;2.13;;
17650;SDS011;26663;59.302;18.082;2024-03-06T13:10:12;2.10;;;2.00;;
17650;SDS011;26663;59.302;18.082;2024-03-06T13:13:17;2.43;;;2.00;;
17650;SDS011;26663;59.302;18.082;2024-03-06T13:16:22;2.37;;;2.17;;
17650;SDS011;26663;59.302;18.082;2024-03-06T13:19:27;2.23;;;2.03;;
17650;SDS011;26663;59.302;18.082;2024-03-06T13:22:31;7.43;;;2.13;;
17650;SDS011;26663;59.302;18.082;2024-03-06T13:25:36;2.70;;;2.03;;
17650;SDS011;26663;59.302;18.082;2024-03-06T13:28:40;2.87;;;1.67;;
17650;SDS011;26663;59.302;18.082;2024-03-06T13:31:45;2.77;;;1.70;;
17650;SDS011;26663;59.302;18.082;2024-03-06T13:34:49;3.27;;;2.00;;
17650;SDS011;26663;59.302;18.082;2024-03-06T13:37:53;2.00;;;1.90;;
17650;SDS011;26663;59.302;18.082;2024-03-06T13:40:57;3.10;;;1.97;;
17650;SDS011;26663;59.302;18.082;2024-03-06T13:44:04;4.27;;;1.77;;
17650;SDS011;26663;59.302;18.082;2024-03-06T13:47:14;1.70;;;1.60;;
17650;SDS011;26663;59.302;18.082;2024-03-06T13:50:19;8.13;;;2.00;;
17650;SDS011;26663;59.302;18.082;2024-03-06T13:53:25;3.37;;;1.90;;
17650;SDS011;26663;59.302;18.082;2024-03-06T13:56:29;6.73;;;1.93;;
17650;SDS011;26663;59.302;18.082;2024-03-06T13:59:34;3.40;;;1.93;;
17650;SDS011;26663;59.302;18.082;2024-03-06T14:02:41;3.70;;;1.80;;
17650;SDS011;26663;59.302;18.082;2024-03-06T14:05:45;1.93;;;1.83;;
17650;SDS011;26663;59.302;18.082;2024-03-06T14:08:49;3.03;;;1.77;;
17650;SDS011;26663;59.302;18.082;2024-03-06T14:11:54;3.97;;;1.93;;
17650;SDS011;26663;59.302;18.082;2024-03-06T14:14:58;5.70;;;1.80;;
17650;SDS011;26663;59.302;18.082;2024-03-06T14:18:04;6.13;;;2.40;;
17650;SDS011;26663;59.302;18.082;2024-03-06T14:21:09;7.93;;;2.23;;
17650;SDS011;26663;59.302;18.082;2024-03-06T14:24:13;1.60;;;1.50;;
17650;SDS011;26663;59.302;18.082;2024-03-06T14:27:16;2.90;;;1.90;;
17650;SDS011;26663;59.302;18.082;2024-03-06T14:30:20;6.00;;;2.20;;
17650;SDS011;26663;59.302;18.082;2024-03-06T14:33:26;4.50;;;2.10;;
17650;SDS011;26663;59.302;18.082;2024-03-06T14:36:30;2.70;;;2.00;;
17650;SDS011;26663;59.302;18.082;2024-03-06T14:39:34;2.27;;;1.80;;
17650;SDS011;26663;59.302;18.082;2024-03-06T14:42:38;2.90;;;1.80;;
17650;SDS011;26663;59.302;18.082;2024-03-06T14:45:42;2.37;;;2.10;;
17650;SDS011;26663;59.302;18.082;2024-03-06T14:48:49;2.10;;;1.90;;
17650;SDS011;26663;59.302;18.082;2024-03-06T14:51:53;8.37;;;2.00;;
17650;SDS011;26663;59.302;18.082;2024-03-06T14:54:57;2.27;;;2.00;;
17650;SDS011;26663;59.302;18.082;2024-03-06T14:58:01;4.53;;;2.03;;
17650;SDS011;26663;59.302;18.082;2024-03-06T15:01:06;3.77;;;1.90;;
17650;SDS011;26663;59.302;18.082;2024-03-06T15:04:11;7.27;;;1.90;;
17650;SDS011;26663;59.302;18.082;2024-03-06T15:07:15;6.20;;;1.90;;
17650;SDS011;26663;59.302;18.082;2024-03-06T15:10:19;1.80;;;1.67;;
17650;SDS011;26663;59.302;18.082;2024-03-06T15:13:23;3.80;;;1.77;;
17650;SDS011;26663;59.302;18.082;2024-03-06T15:16:27;6.03;;;2.23;;
17650;SDS011;26663;59.302;18.082;2024-03-06T15:19:32;4.87;;;2.50;;
17650;SDS011;26663;59.302;18.082;2024-03-06T15:22:37;5.57;;;2.03;;
17650;SDS011;26663;59.302;18.082;2024-03-06T15:25:43;3.53;;;1.93;;
17650;SDS011;26663;59.302;18.082;2024-03-06T15:28:47;2.50;;;2.00;;
17650;SDS011;26663;59.302;18.082;2024-03-06T15:31:51;2.97;;;1.70;;
17650;SDS011;26663;59.302;18.082;2024-03-06T15:34:56;2.87;;;2.00;;
17650;SDS011;26663;59.302;18.082;2024-03-06T15:38:01;5.00;;;2.20;;
17650;SDS011;26663;59.302;18.082;2024-03-06T15:41:05;9.30;;;1.93;;
17650;SDS011;26663;59.302;18.082;2024-03-06T15:44:11;6.97;;;2.17;;
17650;SDS011;26663;59.302;18.082;2024-03-06T15:47:16;8.13;;;2.30;;
17650;SDS011;26663;59.302;18.082;2024-03-06T15:50:21;4.00;;;2.00;;
17650;SDS011;26663;59.302;18.082;2024-03-06T15:53:25;4.57;;;2.40;;
17650;SDS011;26663;59.302;18.082;2024-03-06T15:56:32;4.60;;;2.50;;
17650;SDS011;26663;59.302;18.082;2024-03-06T15:59:36;4.63;;;2.00;;
17650;SDS011;26663;59.302;18.082;2024-03-06T16:02:40;4.57;;;1.83;;
17650;SDS011;26663;59.302;18.082;2024-03-06T16:05:47;2.53;;;2.33;;
17650;SDS011;26663;59.302;18.082;2024-03-06T16:09:00;4.57;;;2.10;;
17650;SDS011;26663;59.302;18.082;2024-03-06T16:12:05;7.40;;;2.67;;
17650;SDS011;26663;59.302;18.082;2024-03-06T16:15:10;7.07;;;2.27;;
17650;SDS011;26663;59.302;18.082;2024-03-06T16:18:14;6.00;;;2.20;;
17650;SDS011;26663;59.302;18.082;2024-03-06T16:21:19;3.00;;;2.03;;
17650;SDS011;26663;59.302;18.082;2024-03-06T16:24:23;2.60;;;2.07;;
17650;SDS011;26663;59.302;18.082;2024-03-06T16:27:27;3.57;;;2.07;;
17650;SDS011;26663;59.302;18.082;2024-03-06T16:30:31;5.60;;;2.00;;
17650;SDS011;26663;59.302;18.082;2024-03-06T16:33:35;4.97;;;2.30;;
17650;SDS011;26663;59.302;18.082;2024-03-06T16:36:41;7.30;;;2.43;;
17650;SDS011;26663;59.302;18.082;2024-03-06T16:39:45;10.10;;;2.40;;
17650;SDS011;26663;59.302;18.082;2024-03-06T16:42:50;4.37;;;2.10;;
17650;SDS011;26663;59.302;18.082;2024-03-06T16:45:53;8.30;;;2.30;;
17650;SDS011;26663;59.302;18.082;2024-03-06T16:48:57;5.70;;;2.67;;
17650;SDS011;26663;59.302;18.082;2024-03-06T16:52:03;3.13;;;2.47;;
17650;SDS011;26663;59.302;18.082;2024-03-06T16:55:07;8.27;;;2.60;;
17650;SDS011;26663;59.302;18.082;2024-03-06T16:58:11;9.63;;;2.70;;
17650;SDS011;26663;59.302;18.082;2024-03-06T17:01:15;10.97;;;3.40;;
17650;SDS011;26663;59.302;18.082;2024-03-06T17:04:19;5.30;;;2.70;;
17650;SDS011;26663;59.302;18.082;2024-03-06T17:07:24;10.93;;;3.63;;
17650;SDS011;26663;59.302;18.082;2024-03-06T17:10:28;13.67;;;3.40;;
17650;SDS011;26663;59.302;18.082;2024-03-06T17:13:33;12.43;;;3.07;;
17650;SDS011;26663;59.302;18.082;2024-03-06T17:16:40;10.60;;;3.10;;
17650;SDS011;26663;59.302;18.082;2024-03-06T17:19:44;19.93;;;3.93;;
17650;SDS011;26663;59.302;18.082;2024-03-06T17:22:50;21.13;;;3.27;;
17650;SDS011;26663;59.302;18.082;2024-03-06T17:25:53;9.53;;;3.17;;
17650;SDS011;26663;59.302;18.082;2024-03-06T17:28:58;13.57;;;3.17;;
17650;SDS011;26663;59.302;18.082;2024-03-06T17:32:03;9.40;;;3.10;;
17650;SDS011;26663;59.302;18.082;2024-03-06T17:35:07;12.43;;;3.10;;
17650;SDS011;26663;59.302;18.082;2024-03-06T17:38:13;5.23;;;2.50;;
17650;SDS011;26663;59.302;18.082;2024-03-06T17:41:19;5.80;;;2.20;;
17650;SDS011;26663;59.302;18.082;2024-03-06T17:44:23;14.03;;;2.10;;
17650;SDS011;26663;59.302;18.082;2024-03-06T17:47:26;6.57;;;2.40;;
17650;SDS011;26663;59.302;18.082;2024-03-06T17:50:30;4.07;;;2.60;;
17650;SDS011;26663;59.302;18.082;2024-03-06T17:53:37;3.70;;;2.60;;
17650;SDS011;26663;59.302;18.082;2024-03-06T17:56:42;7.63;;;2.77;;
17650;SDS011;26663;59.302;18.082;2024-03-06T17:59:46;8.37;;;3.57;;
17650;SDS011;26663;59.302;18.082;2024-03-06T18:02:50;7.80;;;2.60;;
17650;SDS011;26663;59.302;18.082;2024-03-06T18:05:58;2.77;;;2.60;;
17650;SDS011;26663;59.302;18.082;2024-03-06T18:09:03;4.87;;;2.73;;
17650;SDS011;26663;59.302;18.082;2024-03-06T18:12:12;5.03;;;2.37;;
17650;SDS011;26663;59.302;18.082;2024-03-06T18:15:16;6.90;;;2.47;;
17650;SDS011;26663;59.302;18.082;2024-03-06T18:18:20;3.73;;;2.60;;
17650;SDS011;26663;59.302;18.082;2024-03-06T18:21:25;10.80;;;2.73;;
17650;SDS011;26663;59.302;18.082;2024-03-06T18:24:30;9.50;;;2.97;;
17650;SDS011;26663;59.302;18.082;2024-03-06T18:27:34;10.33;;;3.07;;
17650;SDS011;26663;59.302;18.082;2024-03-06T18:30:38;9.17;;;2.50;;
17650;SDS011;26663;59.302;18.082;2024-03-06T18:33:42;5.53;;;2.80;;
17650;SDS011;26663;59.302;18.082;2024-03-06T18:36:46;10.83;;;3.10;;
17650;SDS011;26663;59.302;18.082;2024-03-06T18:39:51;9.37;;;3.13;;
17650;SDS011;26663;59.302;18.082;2024-03-06T18:42:55;8.97;;;3.17;;
17650;SDS011;26663;59.302;18.082;2024-03-06T18:46:00;4.47;;;2.87;;
17650;SDS011;26663;59.302;18.082;2024-03-06T18:49:04;5.87;;;3.00;;
17650;SDS011;26663;59.302;18.082;2024-03-06T18:52:08;5.93;;;3.77;;
17650;SDS011;26663;59.302;18.082;2024-03-06T18:55:14;11.17;;;3.43;;